Time;durP1;ratioP1;P1;durP2;ratioP2;P2;SDS_P1;SDS_P2;PMS_P1;PMS_P2;Temp;Humidity;BMP_temperature;BMP_pressure;BME280_temperature;BME280_humidity;BME280_pressure;Samples;Min_cycle;Max_cycle;Signal;HPM_P1;HPM_P2
2023/03/14 00:00:15;;;;;;;1.45;0.20;;;;;;;;;;5039605;28;20127;-59
2023/03/14 00:02:43;;;;;;;1.38;0.20;;;;;;;;;;5048023;28;20047;-59
2023/03/14 00:05:13;;;;;;;1.40;0.20;;;;;;;;;;5043492;28;20271;-59
2023/03/14 00:07:40;;;;;;;1.70;0.25;;;;;;;;;;5045674;28;20172;-58
2023/03/14 00:10:10;;;;;;;1.75;0.25;;;;;;;;;;5042023;28;20115;-59
2023/03/14 00:12:37;;;;;;;1.55;0.20;;;;;;;;;;5033951;28;20125;-59
2023/03/14 00:15:06;;;;;;;1.10;0.20;;;;;;;;;;5019505;28;20073;-59
2023/03/14 00:17:34;;;;;;;1.80;0.20;;;;;;;;;;5057995;28;20040;-58
2023/03/14 00:20:07;;;;;;;1.67;0.20;;;;;;;;;;5038719;28;20033;-59
2023/03/14 00:22:44;;;;;;;2.40;0.22;;;;;;;;;;5043485;28;20047;-60
2023/03/14 00:25:13;;;;;;;2.00;0.30;;;;;;;;;;5048675;28;20598;-59
2023/03/14 00:27:40;;;;;;;3.55;0.30;;;;;;;;;;5032426;28;20439;-59
2023/03/14 00:30:10;;;;;;;2.80;0.30;;;;;;;;;;4681901;28;10000156;-59
2023/03/14 00:32:37;;;;;;;2.55;0.22;;;;;;;;;;5052578;28;20059;-59
2023/03/14 00:35:06;;;;;;;2.47;0.30;;;;;;;;;;5023319;28;20460;-59
2023/03/14 00:37:34;;;;;;;2.40;0.20;;;;;;;;;;5058383;28;20446;-59
2023/03/14 00:40:06;;;;;;;1.98;0.30;;;;;;;;;;5028506;28;20115;-59
2023/03/14 00:42:33;;;;;;;2.38;0.20;;;;;;;;;;5060127;28;20104;-59
2023/03/14 00:45:01;;;;;;;1.23;0.17;;;;;;;;;;5039340;28;20044;-59
2023/03/14 00:47:29;;;;;;;1.75;0.22;;;;;;;;;;5057271;28;20149;-58
2023/03/14 00:49:57;;;;;;;2.67;0.47;;;;;;;;;;5035957;28;21424;-59
2023/03/14 00:52:24;;;;;;;1.73;0.25;;;;;;;;;;5052981;28;20043;-59
2023/03/14 00:54:52;;;;;;;1.77;0.20;;;;;;;;;;5044146;28;20554;-59
2023/03/14 00:57:21;;;;;;;1.55;0.20;;;;;;;;;;5059125;28;20145;-57
2023/03/14 00:59:49;;;;;;;1.85;0.20;;;;;;;;;;5040878;28;20047;-59
2023/03/14 01:02:18;;;;;;;1.40;0.30;;;;;;;;;;5027539;28;20036;-59
2023/03/14 01:04:47;;;;;;;1.80;0.20;;;;;;;;;;5045729;28;21291;-58
2023/03/14 01:07:15;;;;;;;2.90;0.32;;;;;;;;;;5050988;28;20048;-59
2023/03/14 01:09:43;;;;;;;3.40;0.30;;;;;;;;;;5042731;28;20068;-59
2023/03/14 01:12:10;;;;;;;2.75;0.30;;;;;;;;;;5046056;28;20078;-60
2023/03/14 01:14:40;;;;;;;2.10;0.60;;;;;;;;;;5031641;28;20130;-59
2023/03/14 01:17:07;;;;;;;4.78;0.30;;;;;;;;;;5023702;28;20831;-60
2023/03/14 01:19:35;;;;;;;2.67;0.25;;;;;;;;;;5043107;28;20105;-60
2023/03/14 01:22:02;;;;;;;1.15;0.20;;;;;;;;;;5062029;28;20044;-59
2023/03/14 01:24:30;;;;;;;2.50;0.40;;;;;;;;;;5024760;28;20880;-59
2023/03/14 01:26:58;;;;;;;1.27;0.20;;;;;;;;;;5061255;28;20066;-60
2023/03/14 01:29:25;;;;;;;2.30;0.65;;;;;;;;;;5043959;28;20059;-59
2023/03/14 01:31:54;;;;;;;5.38;0.50;;;;;;;;;;5052849;28;20520;-60
2023/03/14 01:34:22;;;;;;;5.55;0.20;;;;;;;;;;5059985;28;20091;-60
2023/03/14 01:36:49;;;;;;;2.63;0.40;;;;;;;;;;5048945;28;20817;-60
2023/03/14 01:39:17;;;;;;;3.10;0.43;;;;;;;;;;5043740;28;20028;-60
2023/03/14 01:41:45;;;;;;;4.40;0.38;;;;;;;;;;5044625;28;20061;-60
2023/03/14 01:44:13;;;;;;;2.80;0.47;;;;;;;;;;5029662;28;20060;-60
2023/03/14 01:46:41;;;;;;;2.33;0.20;;;;;;;;;;5045056;28;20136;-60
2023/03/14 01:49:16;;;;;;;4.65;0.40;;;;;;;;;;5052390;28;20047;-60
2023/03/14 01:51:47;;;;;;;2.07;0.20;;;;;;;;;;5036679;28;20036;-60
2023/03/14 01:54:17;;;;;;;3.28;0.30;;;;;;;;;;5043807;28;20060;-60
2023/03/14 01:56:47;;;;;;;3.80;0.40;;;;;;;;;;5043979;28;20050;-61
2023/03/14 01:59:15;;;;;;;2.28;0.40;;;;;;;;;;5034805;28;20075;-60
2023/03/14 02:01:43;;;;;;;3.20;0.35;;;;;;;;;;5048907;28;20047;-60
2023/03/14 02:04:11;;;;;;;4.17;0.77;;;;;;;;;;5033517;28;20133;-60
2023/03/14 02:06:45;;;;;;;2.03;0.30;;;;;;;;;;4997475;28;20767;-61
2023/03/14 02:09:13;;;;;;;4.20;0.30;;;;;;;;;;5055292;28;20044;-60
2023/03/14 02:11:40;;;;;;;2.40;0.20;;;;;;;;;;5024252;28;20040;-59
2023/03/14 02:14:14;;;;;;;3.95;0.30;;;;;;;;;;5032837;28;20060;-61
2023/03/14 02:16:42;;;;;;;2.90;0.30;;;;;;;;;;5051214;28;20135;-60
2023/03/14 02:19:11;;;;;;;4.32;0.32;;;;;;;;;;5039600;28;20135;-61
2023/03/14 02:21:48;;;;;;;2.25;0.28;;;;;;;;;;5043622;28;20101;-62
2023/03/14 02:24:18;;;;;;;3.42;0.30;;;;;;;;;;5062050;28;20101;-60
2023/03/14 02:27:00;;;;;;;5.80;0.32;;;;;;;;;;5044711;28;20753;-61
2023/03/14 02:29:42;;;;;;;4.07;0.60;;;;;;;;;;5051227;28;20133;-60
2023/03/14 02:32:10;;;;;;;4.43;0.30;;;;;;;;;;5031302;28;20462;-61
2023/03/14 02:34:38;;;;;;;3.75;0.32;;;;;;;;;;5046552;28;20072;-61
2023/03/14 02:37:06;;;;;;;5.90;0.50;;;;;;;;;;5034992;28;20036;-61
2023/03/14 02:39:37;;;;;;;1.90;0.25;;;;;;;;;;5049552;28;20064;-61
2023/03/14 02:42:05;;;;;;;4.33;0.30;;;;;;;;;;5034663;28;20060;-61
2023/03/14 02:44:35;;;;;;;6.05;0.57;;;;;;;;;;5026873;28;20447;-61
2023/03/14 02:47:04;;;;;;;3.33;0.30;;;;;;;;;;5043056;28;20085;-60
2023/03/14 02:49:32;;;;;;;3.63;0.52;;;;;;;;;;5041870;28;20042;-61
2023/03/14 02:52:02;;;;;;;4.93;0.40;;;;;;;;;;5057993;28;20044;-62
2023/03/14 02:54:31;;;;;;;3.63;0.30;;;;;;;;;;5043674;28;20036;-60
2023/03/14 02:56:59;;;;;;;1.55;0.22;;;;;;;;;;5057123;28;20144;-60
2023/03/14 02:59:26;;;;;;;3.33;0.40;;;;;;;;;;5044799;28;20131;-60
2023/03/14 03:01:55;;;;;;;4.55;0.35;;;;;;;;;;5052996;28;20044;-60
2023/03/14 03:04:23;;;;;;;5.25;0.77;;;;;;;;;;5035423;28;20086;-60
2023/03/14 03:06:51;;;;;;;5.47;0.30;;;;;;;;;;5057838;28;20097;-60
2023/03/14 03:09:18;;;;;;;4.30;0.20;;;;;;;;;;5034957;28;20039;-60
2023/03/14 03:11:46;;;;;;;3.83;0.55;;;;;;;;;;5049875;28;20409;-60
2023/03/14 03:14:13;;;;;;;5.38;0.68;;;;;;;;;;5042597;28;20060;-60
2023/03/14 03:16:41;;;;;;;2.28;0.20;;;;;;;;;;5035841;28;20771;-61
2023/03/14 03:19:10;;;;;;;4.43;0.23;;;;;;;;;;5034708;28;20040;-61
2023/03/14 03:21:38;;;;;;;10.50;0.57;;;;;;;;;;5039435;28;20509;-61
2023/03/14 03:24:06;;;;;;;2.97;0.52;;;;;;;;;;5060256;28;20040;-61
2023/03/14 03:26:34;;;;;;;3.70;0.30;;;;;;;;;;5040968;28;20471;-61
2023/03/14 03:29:02;;;;;;;4.38;0.45;;;;;;;;;;5049171;28;20044;-61
2023/03/14 03:31:29;;;;;;;3.23;0.50;;;;;;;;;;5046959;28;20119;-61
2023/03/14 03:33:57;;;;;;;5.07;1.13;;;;;;;;;;5047220;28;20489;-61
2023/03/14 03:36:26;;;;;;;5.07;0.63;;;;;;;;;;5033951;28;20147;-61
2023/03/14 03:38:54;;;;;;;2.08;0.20;;;;;;;;;;5041173;28;20040;-61
2023/03/14 03:41:22;;;;;;;5.88;0.55;;;;;;;;;;5053773;28;20067;-61
2023/03/14 03:43:53;;;;;;;3.50;0.40;;;;;;;;;;5050624;28;20039;-61
2023/03/14 03:46:22;;;;;;;3.80;0.52;;;;;;;;;;5020684;28;20041;-61
2023/03/14 03:48:54;;;;;;;4.40;0.22;;;;;;;;;;5042426;28;20048;-61
2023/03/14 03:51:22;;;;;;;6.25;0.85;;;;;;;;;;5021876;28;20127;-60
2023/03/14 03:53:51;;;;;;;3.50;0.30;;;;;;;;;;5043893;28;20098;-61
2023/03/14 03:56:18;;;;;;;2.20;0.37;;;;;;;;;;5044761;28;20990;-61
2023/03/14 03:58:46;;;;;;;6.22;0.77;;;;;;;;;;5032609;28;20111;-61
2023/03/14 04:01:13;;;;;;;8.70;0.60;;;;;;;;;;5041143;28;20063;-60
2023/03/14 04:03:41;;;;;;;3.58;0.40;;;;;;;;;;5042815;28;20135;-60
2023/03/14 04:06:10;;;;;;;3.25;0.40;;;;;;;;;;5059503;28;20803;-61
2023/03/14 04:08:40;;;;;;;4.20;0.40;;;;;;;;;;5048652;28;20694;-61
2023/03/14 04:11:09;;;;;;;3.30;0.50;;;;;;;;;;5031702;28;20032;-61
2023/03/14 04:13:37;;;;;;;5.97;0.55;;;;;;;;;;5039530;28;20097;-61
2023/03/14 04:16:04;;;;;;;4.03;0.88;;;;;;;;;;5036997;28;20044;-61
2023/03/14 04:18:32;;;;;;;5.00;0.50;;;;;;;;;;5053167;28;20029;-61
2023/03/14 04:21:00;;;;;;;5.17;0.40;;;;;;;;;;5033425;28;20068;-60
2023/03/14 04:23:27;;;;;;;7.75;0.50;;;;;;;;;;5058150;28;20102;-61
2023/03/14 04:25:55;;;;;;;2.38;0.38;;;;;;;;;;5032905;28;20046;-61
2023/03/14 04:28:24;;;;;;;6.47;0.47;;;;;;;;;;5044727;28;20478;-61
2023/03/14 04:30:51;;;;;;;4.13;0.40;;;;;;;;;;5014055;28;20098;-61
2023/03/14 04:33:19;;;;;;;4.57;0.50;;;;;;;;;;5048312;28;20071;-61
2023/03/14 04:35:47;;;;;;;6.93;0.40;;;;;;;;;;5041472;28;20040;-61
2023/03/14 04:38:14;;;;;;;4.22;0.52;;;;;;;;;;5060876;28;20036;-61
2023/03/14 04:40:42;;;;;;;2.53;0.30;;;;;;;;;;5056270;28;20679;-61
2023/03/14 04:43:11;;;;;;;6.20;0.30;;;;;;;;;;5035454;28;20184;-62
2023/03/14 04:45:42;;;;;;;3.00;0.50;;;;;;;;;;5021914;28;20082;-61
2023/03/14 04:48:09;;;;;;;3.85;0.35;;;;;;;;;;5051684;28;20079;-61
2023/03/14 04:50:37;;;;;;;3.60;0.55;;;;;;;;;;5036205;28;20036;-61
2023/03/14 04:53:05;;;;;;;7.07;0.45;;;;;;;;;;5048098;28;20043;-61
2023/03/14 04:55:34;;;;;;;3.47;0.50;;;;;;;;;;5009749;28;20679;-61
2023/03/14 04:58:02;;;;;;;2.37;0.30;;;;;;;;;;5042526;28;20036;-62
2023/03/14 05:00:29;;;;;;;6.07;0.50;;;;;;;;;;5018518;28;20749;-61
2023/03/14 05:02:58;;;;;;;9.98;0.77;;;;;;;;;;5049860;28;20521;-61
2023/03/14 05:05:26;;;;;;;2.25;0.55;;;;;;;;;;5047621;28;20033;-62
2023/03/14 05:07:54;;;;;;;5.32;0.20;;;;;;;;;;5045770;28;20032;-61
2023/03/14 05:10:21;;;;;;;3.77;0.37;;;;;;;;;;5040530;28;20709;-61
2023/03/14 05:12:49;;;;;;;3.40;0.20;;;;;;;;;;5054578;28;20089;-61
2023/03/14 05:15:16;;;;;;;5.22;0.30;;;;;;;;;;5035400;28;20064;-61
2023/03/14 05:17:45;;;;;;;5.35;0.43;;;;;;;;;;5051615;28;20791;-61
2023/03/14 05:20:14;;;;;;;3.47;0.30;;;;;;;;;;5055422;28;20563;-61
2023/03/14 05:22:42;;;;;;;4.00;0.30;;;;;;;;;;5024889;28;20119;-61
2023/03/14 05:25:10;;;;;;;3.40;0.22;;;;;;;;;;5060681;28;20050;-61
2023/03/14 05:27:37;;;;;;;2.35;0.30;;;;;;;;;;5042102;28;20989;-61
2023/03/14 05:30:06;;;;;;;3.30;0.38;;;;;;;;;;5062793;28;20043;-61
2023/03/14 05:32:34;;;;;;;4.35;0.50;;;;;;;;;;5020298;28;20628;-61
2023/03/14 05:35:01;;;;;;;2.13;0.20;;;;;;;;;;5050305;28;20115;-62
2023/03/14 05:37:30;;;;;;;5.10;0.40;;;;;;;;;;5041021;28;20127;-61
2023/03/14 05:39:58;;;;;;;5.45;0.35;;;;;;;;;;5062600;28;20046;-61
2023/03/14 05:42:27;;;;;;;6.40;0.38;;;;;;;;;;5032462;28;20123;-61
2023/03/14 05:44:54;;;;;;;3.00;0.20;;;;;;;;;;5061762;28;20127;-61
2023/03/14 05:47:22;;;;;;;7.43;0.40;;;;;;;;;;5040896;28;20036;-62
2023/03/14 05:49:50;;;;;;;5.15;0.38;;;;;;;;;;5048604;28;20402;-61
2023/03/14 05:52:17;;;;;;;2.35;0.30;;;;;;;;;;5028061;28;21213;-61
2023/03/14 05:54:46;;;;;;;5.93;0.63;;;;;;;;;;5050176;28;20083;-61
2023/03/14 05:57:15;;;;;;;3.42;0.40;;;;;;;;;;5010481;28;20568;-62
2023/03/14 05:59:47;;;;;;;2.80;0.27;;;;;;;;;;5030771;28;20055;-61
2023/03/14 06:02:15;;;;;;;5.93;0.63;;;;;;;;;;5002603;28;20347;-61
2023/03/14 06:04:42;;;;;;;4.15;0.50;;;;;;;;;;5039723;28;20120;-61
2023/03/14 06:07:10;;;;;;;4.60;0.57;;;;;;;;;;5021261;28;20064;-61
2023/03/14 06:09:39;;;;;;;3.58;0.25;;;;;;;;;;5025699;28;20457;-62
2023/03/14 06:12:08;;;;;;;2.50;0.33;;;;;;;;;;5025375;28;20127;-62
2023/03/14 06:14:36;;;;;;;5.03;0.63;;;;;;;;;;5033477;28;20051;-62
2023/03/14 06:17:03;;;;;;;3.03;0.95;;;;;;;;;;5029562;28;20098;-62
2023/03/14 06:19:31;;;;;;;2.70;0.35;;;;;;;;;;5028663;28;20837;-61
2023/03/14 06:21:59;;;;;;;3.17;0.35;;;;;;;;;;5023211;28;20076;-62
2023/03/14 06:24:27;;;;;;;4.60;0.20;;;;;;;;;;5008007;28;21053;-62
2023/03/14 06:26:54;;;;;;;3.97;0.20;;;;;;;;;;5026385;28;20059;-61
2023/03/14 06:29:23;;;;;;;4.32;0.50;;;;;;;;;;5016422;28;20033;-62
2023/03/14 06:31:51;;;;;;;4.45;0.20;;;;;;;;;;5018258;28;20044;-61
2023/03/14 06:34:19;;;;;;;5.47;0.82;;;;;;;;;;4992320;28;20135;-61
2023/03/14 06:36:46;;;;;;;5.97;0.37;;;;;;;;;;5009479;28;20079;-62
2023/03/14 06:39:14;;;;;;;2.65;0.20;;;;;;;;;;5022573;28;20041;-62
2023/03/14 06:41:41;;;;;;;4.18;0.40;;;;;;;;;;5042285;28;20068;-61
2023/03/14 06:44:09;;;;;;;4.20;0.50;;;;;;;;;;5021943;28;20550;-61
2023/03/14 06:46:39;;;;;;;3.38;0.30;;;;;;;;;;5032995;28;20120;-62
2023/03/14 06:49:07;;;;;;;2.90;0.30;;;;;;;;;;5032722;28;20061;-63
2023/03/14 06:51:35;;;;;;;4.15;0.40;;;;;;;;;;5011864;28;20103;-61
2023/03/14 06:54:02;;;;;;;2.33;0.40;;;;;;;;;;5014905;28;20048;-62
2023/03/14 06:56:30;;;;;;;4.53;0.20;;;;;;;;;;5064891;28;20586;-62
2023/03/14 06:58:57;;;;;;;2.35;0.20;;;;;;;;;;5021075;28;20134;-62
2023/03/14 07:01:26;;;;;;;3.50;0.30;;;;;;;;;;5042688;28;20124;-62
2023/03/14 07:03:55;;;;;;;3.75;0.38;;;;;;;;;;5037238;28;20119;-61
2023/03/14 07:06:23;;;;;;;5.30;0.45;;;;;;;;;;5064444;28;20957;-62
2023/03/14 07:08:51;;;;;;;4.93;0.40;;;;;;;;;;5037249;28;20032;-61
2023/03/14 07:11:18;;;;;;;4.97;0.20;;;;;;;;;;5061975;28;20540;-62
2023/03/14 07:13:47;;;;;;;2.27;0.10;;;;;;;;;;5058845;28;20105;-62
2023/03/14 07:16:15;;;;;;;4.40;0.35;;;;;;;;;;5049083;28;20067;-61
2023/03/14 07:18:42;;;;;;;4.07;0.40;;;;;;;;;;5067408;28;20128;-61
2023/03/14 07:21:11;;;;;;;2.35;0.28;;;;;;;;;;5037451;28;20137;-61
2023/03/14 07:23:39;;;;;;;2.47;0.30;;;;;;;;;;5067692;28;20040;-62
2023/03/14 07:26:07;;;;;;;5.17;0.43;;;;;;;;;;5049092;28;20179;-61
2023/03/14 07:28:35;;;;;;;1.67;0.20;;;;;;;;;;5062477;28;20119;-62
2023/03/14 07:31:03;;;;;;;3.75;0.70;;;;;;;;;;5044467;28;20044;-61
2023/03/14 07:33:30;;;;;;;2.83;0.20;;;;;;;;;;5045006;28;20110;-62
2023/03/14 07:35:58;;;;;;;2.15;0.20;;;;;;;;;;5025341;28;20136;-61
2023/03/14 07:38:27;;;;;;;2.97;0.20;;;;;;;;;;5037710;28;20032;-62
2023/03/14 07:40:58;;;;;;;4.18;0.50;;;;;;;;;;5042247;28;20136;-61
2023/03/14 07:43:26;;;;;;;5.18;0.30;;;;;;;;;;5052497;28;20130;-61
2023/03/14 07:45:54;;;;;;;5.18;0.65;;;;;;;;;;5053887;28;20054;-61
2023/03/14 07:48:26;;;;;;;2.22;0.20;;;;;;;;;;5046832;28;20074;-62
2023/03/14 07:50:55;;;;;;;2.80;0.50;;;;;;;;;;5038385;28;20124;-61
2023/03/14 07:53:23;;;;;;;2.35;0.22;;;;;;;;;;5036346;28;20158;-61
2023/03/14 07:55:52;;;;;;;3.78;0.40;;;;;;;;;;5011357;28;20044;-61
2023/03/14 07:58:21;;;;;;;4.13;0.30;;;;;;;;;;5018715;28;20037;-62
2023/03/14 08:00:49;;;;;;;5.07;0.40;;;;;;;;;;5011559;28;20432;-64
2023/03/14 08:03:17;;;;;;;2.70;0.40;;;;;;;;;;5033621;28;20124;-62
2023/03/14 08:05:47;;;;;;;3.85;0.30;;;;;;;;;;5005158;28;20033;-62
2023/03/14 08:08:18;;;;;;;1.80;0.25;;;;;;;;;;5032538;28;20044;-62
2023/03/14 08:10:46;;;;;;;2.83;0.32;;;;;;;;;;5021913;28;20292;-61
2023/03/14 08:13:18;;;;;;;4.43;0.55;;;;;;;;;;5016853;28;20068;-63
2023/03/14 08:15:48;;;;;;;3.23;0.30;;;;;;;;;;5016589;28;20052;-61
2023/03/14 08:18:16;;;;;;;2.88;0.30;;;;;;;;;;5032695;28;20052;-61
2023/03/14 08:20:43;;;;;;;3.45;0.40;;;;;;;;;;5015334;28;20379;-61
2023/03/14 08:23:11;;;;;;;2.20;0.30;;;;;;;;;;5031448;28;20076;-61
2023/03/14 08:25:39;;;;;;;1.77;0.28;;;;;;;;;;5010027;28;20124;-61
2023/03/14 08:28:07;;;;;;;5.93;0.40;;;;;;;;;;5038009;28;20370;-63
2023/03/14 08:30:37;;;;;;;3.33;0.30;;;;;;;;;;5003750;28;20454;-62
2023/03/14 08:33:04;;;;;;;2.17;0.30;;;;;;;;;;5020617;28;20128;-61
2023/03/14 08:35:32;;;;;;;1.70;0.25;;;;;;;;;;5016182;28;20044;-61
2023/03/14 08:38:00;;;;;;;2.85;0.25;;;;;;;;;;5026968;28;20033;-59
2023/03/14 08:40:28;;;;;;;1.60;0.30;;;;;;;;;;5029967;28;20295;-61
2023/03/14 08:42:56;;;;;;;1.67;0.30;;;;;;;;;;5026142;28;20039;-61
2023/03/14 08:45:24;;;;;;;1.60;0.20;;;;;;;;;;5029476;28;20068;-61
2023/03/14 08:47:54;;;;;;;1.85;0.20;;;;;;;;;;5029656;28;21509;-62
2023/03/14 08:50:23;;;;;;;1.55;0.20;;;;;;;;;;5029848;28;20596;-62
2023/03/14 08:52:51;;;;;;;1.80;0.20;;;;;;;;;;5008501;28;20060;-61
2023/03/14 08:55:19;;;;;;;2.58;0.30;;;;;;;;;;5047054;28;20048;-62
2023/03/14 08:57:46;;;;;;;1.83;0.30;;;;;;;;;;5048505;28;20060;-61
2023/03/14 09:00:15;;;;;;;1.95;0.30;;;;;;;;;;5040644;28;20131;-61
2023/03/14 09:02:43;;;;;;;1.92;0.30;;;;;;;;;;5048321;28;20036;-62
2023/03/14 09:05:13;;;;;;;2.53;0.30;;;;;;;;;;5030587;28;20068;-61
2023/03/14 09:07:41;;;;;;;3.22;0.40;;;;;;;;;;5040299;28;20032;-62
2023/03/14 09:10:09;;;;;;;3.73;0.20;;;;;;;;;;4316181;28;10000632;-62
2023/03/14 09:12:37;;;;;;;2.22;0.30;;;;;;;;;;5060917;28;20044;-62
2023/03/14 09:15:05;;;;;;;3.40;0.38;;;;;;;;;;5043351;28;20064;-61
2023/03/14 09:17:33;;;;;;;2.95;0.30;;;;;;;;;;5040426;28;20095;-62
2023/03/14 09:20:00;;;;;;;2.40;0.40;;;;;;;;;;5046603;28;20044;-61
2023/03/14 09:22:29;;;;;;;2.90;0.40;;;;;;;;;;5041960;28;20482;-61
2023/03/14 09:24:57;;;;;;;2.13;0.28;;;;;;;;;;5033314;28;20094;-61
2023/03/14 09:27:25;;;;;;;2.00;0.20;;;;;;;;;;5032526;28;21698;-62
2023/03/14 09:29:52;;;;;;;2.03;0.30;;;;;;;;;;4696726;28;9999718;-62
2023/03/14 09:32:20;;;;;;;2.58;0.40;;;;;;;;;;4995082;28;20089;-60
2023/03/14 09:34:48;;;;;;;2.28;0.30;;;;;;;;;;5024267;28;20045;-62
2023/03/14 09:37:17;;;;;;;2.03;0.33;;;;;;;;;;5012536;28;20490;-62
2023/03/14 09:39:46;;;;;;;3.03;0.50;;;;;;;;;;5012265;28;20036;-63
2023/03/14 09:42:15;;;;;;;2.33;0.30;;;;;;;;;;5029488;28;20122;-62
2023/03/14 09:44:50;;;;;;;2.53;0.40;;;;;;;;;;5022817;28;20036;-62
2023/03/14 09:47:19;;;;;;;2.85;0.47;;;;;;;;;;5004149;28;20045;-63
2023/03/14 09:49:47;;;;;;;1.77;0.20;;;;;;;;;;5011437;28;20121;-62
2023/03/14 09:52:15;;;;;;;2.33;0.30;;;;;;;;;;5014693;28;20129;-62
2023/03/14 09:54:45;;;;;;;2.70;0.30;;;;;;;;;;5041164;28;20076;-62
2023/03/14 09:57:17;;;;;;;2.10;0.20;;;;;;;;;;5017082;28;20671;-61
2023/03/14 09:59:46;;;;;;;2.42;0.38;;;;;;;;;;5032622;28;20136;-61
2023/03/14 10:02:15;;;;;;;3.47;0.20;;;;;;;;;;5029867;28;20297;-62
2023/03/14 10:04:45;;;;;;;2.67;0.30;;;;;;;;;;5031230;28;20041;-62
2023/03/14 10:07:15;;;;;;;2.40;0.20;;;;;;;;;;5015618;28;20115;-62
2023/03/14 10:09:44;;;;;;;2.30;0.20;;;;;;;;;;5022534;28;20696;-62
2023/03/14 10:12:12;;;;;;;2.30;0.30;;;;;;;;;;5006963;28;20037;-62
2023/03/14 10:14:47;;;;;;;3.53;0.27;;;;;;;;;;5033712;28;22043;-63
2023/03/14 10:17:16;;;;;;;4.13;0.30;;;;;;;;;;5024282;28;20056;-62
2023/03/14 10:19:54;;;;;;;2.00;0.35;;;;;;;;;;5030524;28;20068;-62
2023/03/14 10:22:23;;;;;;;1.80;0.22;;;;;;;;;;5007866;28;20056;-62
2023/03/14 10:24:53;;;;;;;2.15;0.40;;;;;;;;;;5016375;28;20473;-61
2023/03/14 10:27:24;;;;;;;3.90;0.47;;;;;;;;;;5004470;28;20052;-62
2023/03/14 10:29:55;;;;;;;2.60;0.30;;;;;;;;;;5026267;28;20722;-62
2023/03/14 10:32:30;;;;;;;3.60;0.55;;;;;;;;;;5031006;28;20045;-62
2023/03/14 10:35:07;;;;;;;2.33;0.40;;;;;;;;;;5009089;28;20083;-62
2023/03/14 10:37:34;;;;;;;2.75;0.35;;;;;;;;;;5002407;28;20051;-62
2023/03/14 10:40:05;;;;;;;1.83;0.30;;;;;;;;;;5016699;28;20415;-62
2023/03/14 10:42:35;;;;;;;1.33;0.20;;;;;;;;;;5018951;28;20685;-62
2023/03/14 10:45:07;;;;;;;1.98;0.30;;;;;;;;;;5040270;28;20106;-62
2023/03/14 10:47:35;;;;;;;2.05;0.20;;;;;;;;;;5003541;28;20041;-62
2023/03/14 10:50:24;;;;;;;2.42;0.30;;;;;;;;;;5006120;28;20048;-62
2023/03/14 10:52:52;;;;;;;1.77;0.20;;;;;;;;;;5008673;28;20044;-62
2023/03/14 10:55:39;;;;;;;2.00;0.20;;;;;;;;;;5030734;28;20052;-62
2023/03/14 10:58:17;;;;;;;3.05;0.50;;;;;;;;;;5049395;28;20068;-62
2023/03/14 11:00:49;;;;;;;2.72;0.77;;;;;;;;;;5000904;28;20111;-62
2023/03/14 11:03:17;;;;;;;2.65;0.40;;;;;;;;;;5030511;28;20044;-62
2023/03/14 11:05:47;;;;;;;2.67;0.47;;;;;;;;;;5026606;28;20048;-62
2023/03/14 11:08:22;;;;;;;2.10;0.40;;;;;;;;;;5034976;28;20098;-63
2023/03/14 11:10:52;;;;;;;2.58;0.40;;;;;;;;;;5026277;28;20203;-62
2023/03/14 11:13:23;;;;;;;3.40;0.63;;;;;;;;;;4995876;28;20539;-62
2023/03/14 11:16:02;;;;;;;3.53;0.55;;;;;;;;;;5042952;28;20038;-61
2023/03/14 11:18:37;;;;;;;2.90;0.50;;;;;;;;;;5035603;28;20441;-61
2023/03/14 11:21:09;;;;;;;4.85;0.40;;;;;;;;;;5011489;28;20050;-62
2023/03/14 11:23:41;;;;;;;3.83;0.30;;;;;;;;;;5034764;28;20039;-62
2023/03/14 11:26:16;;;;;;;3.63;0.30;;;;;;;;;;5008304;28;20719;-62
2023/03/14 11:28:48;;;;;;;3.17;0.63;;;;;;;;;;5032737;28;20040;-62
2023/03/14 11:31:21;;;;;;;2.73;0.57;;;;;;;;;;4347482;28;9999989;-63
2023/03/14 11:33:54;;;;;;;2.78;0.30;;;;;;;;;;5005697;28;20063;-62
2023/03/14 11:36:22;;;;;;;2.58;0.35;;;;;;;;;;5010330;28;20523;-62
2023/03/14 11:38:51;;;;;;;5.63;0.38;;;;;;;;;;5035790;28;20033;-62
2023/03/14 11:41:21;;;;;;;2.30;0.30;;;;;;;;;;5015633;28;20064;-63
2023/03/14 11:43:49;;;;;;;2.78;0.35;;;;;;;;;;5034004;28;20044;-62
2023/03/14 11:46:20;;;;;;;3.78;0.50;;;;;;;;;;5004255;28;20032;-61
2023/03/14 11:48:55;;;;;;;2.47;0.40;;;;;;;;;;5017233;28;20112;-61
2023/03/14 11:51:25;;;;;;;5.80;0.30;;;;;;;;;;5017958;28;20124;-61
2023/03/14 11:53:59;;;;;;;2.73;0.33;;;;;;;;;;4988859;28;20139;-61
2023/03/14 11:56:30;;;;;;;2.63;0.30;;;;;;;;;;5022591;28;20517;-61
2023/03/14 11:59:00;;;;;;;2.13;0.40;;;;;;;;;;5028542;28;20059;-61
2023/03/14 12:01:35;;;;;;;2.85;0.35;;;;;;;;;;5022166;28;20303;-61
2023/03/14 12:04:07;;;;;;;3.10;0.50;;;;;;;;;;5029474;28;20052;-61
2023/03/14 12:06:38;;;;;;;2.23;0.30;;;;;;;;;;5018920;28;21037;-60
2023/03/14 12:09:07;;;;;;;2.60;0.30;;;;;;;;;;5027565;28;20048;-61
2023/03/14 12:11:39;;;;;;;2.58;0.30;;;;;;;;;;5003141;28;20040;-61
2023/03/14 12:14:18;;;;;;;3.20;0.50;;;;;;;;;;5022158;28;20080;-61
2023/03/14 12:16:50;;;;;;;2.50;0.40;;;;;;;;;;5027199;28;20046;-60
2023/03/14 12:19:35;;;;;;;2.93;0.50;;;;;;;;;;5014124;28;20047;-61
2023/03/14 12:22:23;;;;;;;2.15;0.40;;;;;;;;;;5030561;28;20109;-61
2023/03/14 12:24:52;;;;;;;3.03;0.45;;;;;;;;;;5004660;28;20626;-61
2023/03/14 12:27:43;;;;;;;1.85;0.30;;;;;;;;;;5027744;28;20502;-61
2023/03/14 12:30:20;;;;;;;2.10;0.40;;;;;;;;;;5028873;28;20600;-61
2023/03/14 12:33:02;;;;;;;3.20;0.30;;;;;;;;;;5021515;28;20055;-60
2023/03/14 12:35:35;;;;;;;4.57;0.50;;;;;;;;;;5014254;28;21768;-60
2023/03/14 12:38:06;;;;;;;2.97;0.40;;;;;;;;;;5024953;28;20045;-60
2023/03/14 12:40:38;;;;;;;2.67;0.50;;;;;;;;;;5018380;28;21051;-61
2023/03/14 12:43:24;;;;;;;2.90;0.45;;;;;;;;;;5024226;28;20116;-61
2023/03/14 12:46:09;;;;;;;4.00;0.67;;;;;;;;;;5039296;28;20430;-62
2023/03/14 12:48:38;;;;;;;2.63;0.20;;;;;;;;;;5027217;28;21418;-61
2023/03/14 12:51:13;;;;;;;3.17;0.40;;;;;;;;;;5027777;28;20055;-61
2023/03/14 12:54:14;;;;;;;4.82;0.30;;;;;;;;;;5013210;28;20044;-61
2023/03/14 12:56:52;;;;;;;3.63;0.70;;;;;;;;;;4954288;28;21420;-62
2023/03/14 12:59:29;;;;;;;3.93;0.30;;;;;;;;;;4956838;28;21610;-61
2023/03/14 13:02:00;;;;;;;1.67;0.30;;;;;;;;;;4977049;28;20063;-61
2023/03/14 13:04:33;;;;;;;3.40;0.43;;;;;;;;;;5027252;28;20068;-61
2023/03/14 13:07:11;;;;;;;2.67;0.22;;;;;;;;;;5003110;28;20041;-61
2023/03/14 13:10:00;;;;;;;2.40;0.30;;;;;;;;;;5032180;28;20079;-61
2023/03/14 13:12:31;;;;;;;3.13;0.30;;;;;;;;;;5027415;28;20122;-61
2023/03/14 13:15:02;;;;;;;3.80;0.43;;;;;;;;;;5016273;28;20207;-61
2023/03/14 13:17:32;;;;;;;3.97;0.40;;;;;;;;;;4334955;28;10000822;-61
2023/03/14 13:20:07;;;;;;;5.22;0.30;;;;;;;;;;5029164;28;20060;-61
2023/03/14 13:22:38;;;;;;;2.63;0.30;;;;;;;;;;5015236;28;20044;-61
2023/03/14 13:25:07;;;;;;;2.88;0.30;;;;;;;;;;5034250;28;20047;-61
2023/03/14 13:27:35;;;;;;;3.47;0.32;;;;;;;;;;5017585;28;20107;-61
2023/03/14 13:30:22;;;;;;;2.89;0.36;;;;;;;;;;4977106;28;10000998;-61
2023/03/14 13:32:51;;;;;;;3.10;0.30;;;;;;;;;;5020348;28;20975;-62
2023/03/14 13:35:21;;;;;;;3.00;0.30;;;;;;;;;;5031045;28;20052;-63
2023/03/14 13:37:54;;;;;;;2.50;0.20;;;;;;;;;;5001946;28;20070;-63
2023/03/14 13:40:37;;;;;;;2.07;0.20;;;;;;;;;;5035933;28;20428;-63
2023/03/14 13:43:11;;;;;;;2.00;0.30;;;;;;;;;;5032898;28;20063;-63
2023/03/14 13:45:52;;;;;;;4.38;0.40;;;;;;;;;;5015765;28;20037;-63
2023/03/14 13:48:20;;;;;;;3.15;0.55;;;;;;;;;;5024976;28;20064;-63
2023/03/14 13:50:52;;;;;;;3.35;0.22;;;;;;;;;;5013418;28;20036;-63
2023/03/14 13:53:22;;;;;;;2.97;0.20;;;;;;;;;;5027450;28;20044;-63
2023/03/14 13:55:50;;;;;;;3.00;0.28;;;;;;;;;;5006267;28;20040;-63
2023/03/14 13:58:22;;;;;;;1.50;0.20;;;;;;;;;;5011083;28;20046;-64
2023/03/14 14:00:59;;;;;;;2.20;0.40;;;;;;;;;;5014300;28;20048;-64
2023/03/14 14:03:31;;;;;;;2.38;0.40;;;;;;;;;;5010069;28;20364;-65
2023/03/14 14:05:59;;;;;;;2.67;0.37;;;;;;;;;;4996907;28;20052;-64
2023/03/14 14:08:28;;;;;;;1.98;0.30;;;;;;;;;;5003966;28;20482;-64
2023/03/14 14:10:59;;;;;;;2.30;0.30;;;;;;;;;;5011731;28;20043;-64
2023/03/14 14:13:29;;;;;;;3.75;0.30;;;;;;;;;;4996384;28;21186;-64
2023/03/14 14:16:01;;;;;;;2.35;0.25;;;;;;;;;;5026921;28;20074;-66
2023/03/14 14:18:31;;;;;;;3.03;0.53;;;;;;;;;;5021024;28;20071;-66
2023/03/14 14:21:02;;;;;;;1.63;0.20;;;;;;;;;;4993844;28;20039;-66
2023/03/14 14:23:32;;;;;;;2.25;0.20;;;;;;;;;;5018427;28;20072;-65
2023/03/14 14:26:00;;;;;;;1.80;0.30;;;;;;;;;;4985220;28;20073;-66
2023/03/14 14:28:29;;;;;;;1.60;0.20;;;;;;;;;;5022637;28;20568;-66
2023/03/14 14:31:00;;;;;;;4.50;0.30;;;;;;;;;;4974923;28;20720;-65
2023/03/14 14:33:28;;;;;;;1.88;0.22;;;;;;;;;;5000414;28;20076;-66
2023/03/14 14:35:56;;;;;;;1.77;0.40;;;;;;;;;;4996801;28;20318;-65
2023/03/14 14:38:24;;;;;;;3.80;0.28;;;;;;;;;;5013432;28;20072;-65
2023/03/14 14:40:55;;;;;;;2.13;0.45;;;;;;;;;;4994313;28;20033;-65
2023/03/14 14:43:23;;;;;;;2.30;0.40;;;;;;;;;;5017081;28;20772;-65
2023/03/14 14:45:52;;;;;;;2.13;0.30;;;;;;;;;;4998800;28;20641;-65
2023/03/14 14:48:21;;;;;;;3.92;0.50;;;;;;;;;;5020663;28;20049;-65
2023/03/14 14:51:00;;;;;;;3.70;0.43;;;;;;;;;;5003628;28;20047;-65
2023/03/14 14:53:30;;;;;;;1.30;0.20;;;;;;;;;;4953562;28;20029;-65
2023/03/14 14:56:00;;;;;;;3.50;0.40;;;;;;;;;;5033875;28;20053;-64
2023/03/14 14:58:28;;;;;;;1.77;0.30;;;;;;;;;;5004537;28;20068;-65